Time;durP1;ratioP1;P1;durP2;ratioP2;P2;SDS_P1;SDS_P2;PMS_P1;PMS_P2;Temp;Humidity;BMP_temperature;BMP_pressure;BME280_temperature;BME280_humidity;BME280_pressure;Samples;Min_cycle;Max_cycle;Signal;HPM_P1;HPM_P2
2023/10/25 00:01:43;;;;;;;0.10;0.10;;;10.10;99.90;;;;;;5030890;28;20037;-74
2023/10/25 00:04:08;;;;;;;0.17;0.17;;;10.10;99.90;;;;;;5002510;28;20153;-74
2023/10/25 00:06:34;;;;;;;0.20;0.20;;;10.10;99.90;;;;;;5008963;28;20045;-74
2023/10/25 00:09:00;;;;;;;0.10;0.10;;;10.00;99.90;;;;;;5009616;28;20516;-74
2023/10/25 00:11:26;;;;;;;0.10;0.10;;;10.10;99.90;;;;;;5007792;28;20049;-74
2023/10/25 00:13:51;;;;;;;0.10;0.10;;;10.10;99.90;;;;;;5010143;28;20432;-74
2023/10/25 00:16:17;;;;;;;0.10;0.10;;;10.00;99.90;;;;;;5005268;28;20095;-74
2023/10/25 00:18:43;;;;;;;0.20;0.20;;;10.00;99.90;;;;;;5011498;28;20484;-74
2023/10/25 00:21:09;;;;;;;0.17;0.17;;;10.00;99.90;;;;;;5007954;28;20068;-74
2023/10/25 00:23:34;;;;;;;0.10;0.10;;;10.00;99.90;;;;;;5006735;28;20033;-74
2023/10/25 00:26:00;;;;;;;0.10;0.10;;;10.00;99.90;;;;;;5011334;28;20116;-74
2023/10/25 00:28:26;;;;;;;0.10;0.10;;;10.00;99.90;;;;;;5007987;28;20076;-73
2023/10/25 00:30:51;;;;;;;0.20;0.20;;;10.00;99.90;;;;;;5014044;28;20091;-75
2023/10/25 00:33:17;;;;;;;0.10;0.10;;;9.90;99.90;;;;;;5006661;28;20050;-74
2023/10/25 00:35:42;;;;;;;0.10;0.10;;;9.90;99.90;;;;;;4994632;28;20436;-74
2023/10/25 00:38:08;;;;;;;0.10;0.10;;;9.90;99.90;;;;;;5001989;28;20053;-74
2023/10/25 00:40:35;;;;;;;0.10;0.10;;;9.90;99.90;;;;;;5031375;28;20042;-74
2023/10/25 00:43:20;;;;;;;0.20;0.20;;;9.90;99.90;;;;;;5009372;28;20452;-74
2023/10/25 00:46:11;;;;;;;0.10;0.10;;;9.80;99.90;;;;;;5013323;28;20045;-74
2023/10/25 00:48:40;;;;;;;0.10;0.10;;;10.00;99.90;;;;;;5010800;28;20057;-74
2023/10/25 00:51:08;;;;;;;0.20;0.20;;;9.80;99.90;;;;;;5002918;28;20073;-74
2023/10/25 00:53:37;;;;;;;0.20;0.20;;;9.80;99.90;;;;;;5026622;28;20041;-74
2023/10/25 00:56:05;;;;;;;0.10;0.10;;;9.80;99.90;;;;;;5013763;28;20049;-74
2023/10/25 00:58:31;;;;;;;0.15;0.15;;;9.80;99.90;;;;;;5011760;28;20049;-75
2023/10/25 01:00:58;;;;;;;0.20;0.20;;;9.80;99.90;;;;;;5013141;28;20485;-74
2023/10/25 01:03:24;;;;;;;0.17;0.17;;;9.80;99.90;;;;;;5006827;28;20042;-74
2023/10/25 01:05:50;;;;;;;0.10;0.10;;;9.80;99.90;;;;;;5028984;28;20053;-74
2023/10/25 01:08:20;;;;;;;0.20;0.20;;;9.70;99.90;;;;;;5011996;28;20045;-74
2023/10/25 01:10:49;;;;;;;0.10;0.10;;;9.70;99.90;;;;;;5004480;28;20037;-74
2023/10/25 01:13:16;;;;;;;0.15;0.15;;;9.70;99.90;;;;;;5002906;28;20674;-74
2023/10/25 01:15:41;;;;;;;0.20;0.20;;;9.70;99.90;;;;;;5009928;28;20042;-74
2023/10/25 01:18:07;;;;;;;0.10;0.10;;;9.70;99.90;;;;;;5006273;28;20060;-74
2023/10/25 01:20:32;;;;;;;0.10;0.10;;;9.60;99.90;;;;;;5007320;28;20053;-74
2023/10/25 01:22:58;;;;;;;0.20;0.20;;;9.60;99.90;;;;;;5010206;28;20045;-74
2023/10/25 01:25:24;;;;;;;0.20;0.20;;;9.70;99.90;;;;;;5009585;28;20042;-74
2023/10/25 01:27:51;;;;;;;0.10;0.10;;;9.60;99.90;;;;;;5010361;28;20132;-74
2023/10/25 01:30:17;;;;;;;0.10;0.10;;;9.60;99.90;;;;;;5010919;28;20045;-74
2023/10/25 01:32:43;;;;;;;0.10;0.10;;;9.60;99.90;;;;;;5008751;28;20449;-74
2023/10/25 01:35:10;;;;;;;0.10;0.10;;;9.60;99.90;;;;;;5027660;28;20096;-73
2023/10/25 01:37:36;;;;;;;0.10;0.10;;;9.50;99.90;;;;;;5010777;28;20041;-74
2023/10/25 01:40:03;;;;;;;0.10;0.10;;;9.50;99.90;;;;;;5012053;28;20037;-74
2023/10/25 01:42:29;;;;;;;0.10;0.10;;;9.50;99.90;;;;;;5007307;28;20057;-74
2023/10/25 01:44:55;;;;;;;0.10;0.10;;;9.40;99.90;;;;;;5010981;28;20087;-74
2023/10/25 01:47:21;;;;;;;0.10;0.10;;;9.40;99.90;;;;;;5004596;28;20062;-74
2023/10/25 01:49:47;;;;;;;0.10;0.10;;;9.40;99.90;;;;;;5010199;28;20594;-74
2023/10/25 01:52:13;;;;;;;0.13;0.13;;;9.40;99.90;;;;;;5009153;28;20080;-74
2023/10/25 01:54:40;;;;;;;0.10;0.10;;;9.30;99.90;;;;;;5003234;28;20119;-74
2023/10/25 01:57:06;;;;;;;0.17;0.17;;;9.30;99.90;;;;;;4995275;28;20060;-74
2023/10/25 01:59:32;;;;;;;0.10;0.10;;;9.30;99.90;;;;;;5030360;28;20048;-73
2023/10/25 02:01:57;;;;;;;0.17;0.17;;;9.30;99.90;;;;;;5027509;28;20053;-74
2023/10/25 02:04:23;;;;;;;0.10;0.10;;;9.30;99.90;;;;;;5011687;28;20049;-74
2023/10/25 02:06:51;;;;;;;0.17;0.17;;;9.20;99.90;;;;;;5028901;28;20092;-74
2023/10/25 02:09:18;;;;;;;0.10;0.10;;;9.20;99.90;;;;;;4995637;28;20054;-74
2023/10/25 02:11:44;;;;;;;0.20;0.20;;;9.20;99.90;;;;;;5027774;28;20064;-74
2023/10/25 02:14:10;;;;;;;0.10;0.10;;;9.20;99.90;;;;;;5009545;28;20046;-74
2023/10/25 02:16:35;;;;;;;0.20;0.20;;;9.20;99.90;;;;;;5030305;28;20133;-75
2023/10/25 02:19:01;;;;;;;0.10;0.10;;;9.30;99.90;;;;;;5029607;28;20885;-74
2023/10/25 02:21:27;;;;;;;0.10;0.10;;;9.50;99.90;;;;;;5005858;28;20049;-74
2023/10/25 02:23:55;;;;;;;0.10;0.10;;;9.30;99.90;;;;;;5011180;28;20041;-74
2023/10/25 02:26:21;;;;;;;0.13;0.13;;;9.40;99.90;;;;;;5012085;28;20132;-74
2023/10/25 02:28:46;;;;;;;0.15;0.15;;;9.30;99.90;;;;;;5009761;28;20136;-74
2023/10/25 02:31:12;;;;;;;0.10;0.10;;;9.10;99.90;;;;;;5009633;28;20521;-74
2023/10/25 02:33:38;;;;;;;0.10;0.10;;;9.10;99.90;;;;;;5005419;28;20281;-74
2023/10/25 02:36:04;;;;;;;0.20;0.20;;;9.10;99.90;;;;;;5006293;28;20125;-74
2023/10/25 02:38:30;;;;;;;0.10;0.10;;;9.10;99.90;;;;;;5024345;28;20054;-74
2023/10/25 02:40:56;;;;;;;0.10;0.10;;;9.10;99.90;;;;;;5024500;28;20060;-74
2023/10/25 02:43:21;;;;;;;0.20;0.20;;;9.00;99.90;;;;;;5026284;28;20041;-74
2023/10/25 02:45:47;;;;;;;0.10;0.10;;;9.10;99.90;;;;;;5010711;28;20084;-74
2023/10/25 02:48:13;;;;;;;0.10;0.10;;;9.00;99.90;;;;;;5028846;28;20454;-75
2023/10/25 02:50:39;;;;;;;0.10;0.10;;;8.90;99.90;;;;;;5000230;28;20052;-74
2023/10/25 02:53:05;;;;;;;0.10;0.10;;;9.00;99.90;;;;;;5008589;28;20076;-74
2023/10/25 02:55:33;;;;;;;0.10;0.10;;;9.00;99.90;;;;;;5001618;28;20081;-74
2023/10/25 02:57:58;;;;;;;0.20;0.20;;;9.00;99.90;;;;;;5009617;28;20692;-74
2023/10/25 03:00:24;;;;;;;0.10;0.10;;;8.90;99.90;;;;;;5008256;28;20158;-74
2023/10/25 03:02:50;;;;;;;0.10;0.10;;;8.90;99.90;;;;;;5007844;28;20041;-74
2023/10/25 03:05:16;;;;;;;0.20;0.20;;;8.90;99.90;;;;;;5009669;28;20202;-74
2023/10/25 03:07:41;;;;;;;0.20;0.20;;;8.90;99.90;;;;;;5007649;28;20045;-74
2023/10/25 03:10:07;;;;;;;0.20;0.20;;;8.90;99.90;;;;;;4999160;28;20037;-74
2023/10/25 03:12:33;;;;;;;0.10;0.10;;;8.90;99.90;;;;;;5008377;28;20140;-74
2023/10/25 03:15:00;;;;;;;0.10;0.10;;;8.90;99.90;;;;;;5012617;28;20129;-74
2023/10/25 03:17:30;;;;;;;0.13;0.13;;;8.90;99.90;;;;;;5005216;28;20100;-74
2023/10/25 03:19:55;;;;;;;0.10;0.10;;;8.80;99.90;;;;;;5017993;28;20052;-74
2023/10/25 03:22:22;;;;;;;0.17;0.17;;;8.80;99.90;;;;;;5003052;28;20485;-74
2023/10/25 03:24:47;;;;;;;0.20;0.20;;;8.80;99.90;;;;;;5010037;28;20489;-74
2023/10/25 03:27:13;;;;;;;0.20;0.20;;;8.80;99.90;;;;;;5027508;28;20045;-74
2023/10/25 03:29:39;;;;;;;0.20;0.20;;;8.80;99.90;;;;;;5011214;28;20132;-74
2023/10/25 03:32:05;;;;;;;0.17;0.17;;;8.80;99.90;;;;;;5010665;28;20080;-74
2023/10/25 03:34:30;;;;;;;0.10;0.10;;;8.80;99.90;;;;;;5001726;28;20096;-74
2023/10/25 03:36:56;;;;;;;0.10;0.10;;;8.70;99.90;;;;;;4994746;28;20400;-74
2023/10/25 03:39:22;;;;;;;0.10;0.10;;;8.80;99.90;;;;;;5011965;28;20076;-74
2023/10/25 03:41:48;;;;;;;0.10;0.10;;;8.70;99.90;;;;;;5005128;28;20811;-74
2023/10/25 03:44:13;;;;;;;0.20;0.20;;;8.70;99.90;;;;;;5005231;28;20108;-74
2023/10/25 03:46:39;;;;;;;0.13;0.13;;;8.70;99.90;;;;;;5004389;28;20049;-74
2023/10/25 03:49:05;;;;;;;0.10;0.10;;;8.70;99.90;;;;;;5005091;28;20038;-74
2023/10/25 03:51:31;;;;;;;0.10;0.10;;;8.80;99.90;;;;;;5002798;28;20539;-74
2023/10/25 03:53:57;;;;;;;0.10;0.10;;;8.70;99.90;;;;;;5001759;28;20160;-74
2023/10/25 03:56:23;;;;;;;0.10;0.10;;;8.70;99.90;;;;;;5011102;28;20037;-74
2023/10/25 03:58:49;;;;;;;0.10;0.10;;;8.70;99.90;;;;;;5008999;28;20062;-74
2023/10/25 04:01:14;;;;;;;0.10;0.10;;;8.70;99.90;;;;;;5009007;28;20045;-74
2023/10/25 04:03:41;;;;;;;0.17;0.17;;;8.70;99.90;;;;;;5004321;28;20416;-74
2023/10/25 04:06:08;;;;;;;0.10;0.10;;;8.70;99.90;;;;;;4990771;28;20050;-74
2023/10/25 04:08:34;;;;;;;0.10;0.10;;;8.70;99.90;;;;;;4996448;28;20072;-74
2023/10/25 04:10:59;;;;;;;0.17;0.17;;;9.00;99.90;;;;;;5011122;28;20045;-75
2023/10/25 04:13:25;;;;;;;0.20;0.20;;;8.70;99.90;;;;;;5004361;28;20103;-74
2023/10/25 04:16:02;;;;;;;0.10;0.10;;;8.60;99.90;;;;;;5002798;28;20056;-74
2023/10/25 04:18:30;;;;;;;0.20;0.20;;;8.70;99.90;;;;;;5001811;28;20699;-74
2023/10/25 04:20:56;;;;;;;0.10;0.10;;;8.60;99.90;;;;;;5007669;28;20488;-74
2023/10/25 04:23:26;;;;;;;0.20;0.20;;;8.70;99.90;;;;;;5005293;28;20124;-74
2023/10/25 04:25:52;;;;;;;0.10;0.10;;;8.60;99.90;;;;;;5007080;28;20056;-74
2023/10/25 04:28:18;;;;;;;0.20;0.20;;;8.70;99.90;;;;;;5006135;28;20049;-74
2023/10/25 04:30:45;;;;;;;0.10;0.10;;;8.70;99.90;;;;;;4993763;28;20041;-74
2023/10/25 04:33:11;;;;;;;0.13;0.13;;;8.70;99.90;;;;;;5026240;28;20056;-74
2023/10/25 04:35:37;;;;;;;0.10;0.10;;;8.60;99.90;;;;;;4998709;28;20138;-75
2023/10/25 04:38:02;;;;;;;0.10;0.10;;;8.70;99.90;;;;;;4994145;28;20144;-74
2023/10/25 04:40:28;;;;;;;0.10;0.10;;;8.60;99.90;;;;;;5027116;28;20546;-74
2023/10/25 04:42:54;;;;;;;0.10;0.10;;;8.60;99.90;;;;;;5025389;28;20482;-74
2023/10/25 04:45:22;;;;;;;0.10;0.10;;;8.60;99.90;;;;;;5027701;28;20048;-74
2023/10/25 04:47:51;;;;;;;0.17;0.17;;;8.60;99.90;;;;;;5014036;28;20096;-74
2023/10/25 04:50:24;;;;;;;0.20;0.20;;;8.60;99.90;;;;;;5001359;28;20049;-75
2023/10/25 04:52:50;;;;;;;0.10;0.10;;;8.60;99.90;;;;;;5005981;28;20452;-74
2023/10/25 04:55:16;;;;;;;0.10;0.10;;;8.60;99.90;;;;;;5013280;28;20120;-75
2023/10/25 04:57:41;;;;;;;0.10;0.10;;;8.50;99.90;;;;;;5007603;28;20053;-75
2023/10/25 05:00:09;;;;;;;0.10;0.10;;;8.50;99.90;;;;;;5004318;28;20129;-74
2023/10/25 05:02:37;;;;;;;0.10;0.10;;;8.50;99.90;;;;;;5004940;28;20049;-74
2023/10/25 05:05:03;;;;;;;0.10;0.10;;;8.50;99.90;;;;;;5009037;28;20056;-73
2023/10/25 05:07:29;;;;;;;0.13;0.13;;;8.50;99.90;;;;;;5012670;28;20049;-74
2023/10/25 05:09:55;;;;;;;0.10;0.10;;;8.50;99.90;;;;;;5010728;28;20127;-74
2023/10/25 05:12:39;;;;;;;0.10;0.10;;;8.50;99.90;;;;;;5003321;28;20514;-73
2023/10/25 05:15:09;;;;;;;0.10;0.10;;;8.50;99.90;;;;;;5010408;28;20049;-73
2023/10/25 05:17:36;;;;;;;0.13;0.13;;;8.50;99.90;;;;;;4993230;28;20141;-74
2023/10/25 05:20:04;;;;;;;0.10;0.10;;;8.50;99.90;;;;;;5009906;28;20053;-74
2023/10/25 05:22:34;;;;;;;0.17;0.17;;;8.50;99.90;;;;;;5030590;28;20075;-73
2023/10/25 05:25:00;;;;;;;0.10;0.10;;;8.40;99.90;;;;;;4996673;28;20137;-73
2023/10/25 05:27:26;;;;;;;0.03;0.03;;;8.40;99.90;;;;;;4996896;28;20041;-73
2023/10/25 05:29:52;;;;;;;0.20;0.20;;;8.40;99.90;;;;;;5009468;28;20108;-73
2023/10/25 05:32:21;;;;;;;0.15;0.15;;;8.40;99.90;;;;;;5012383;28;20520;-73
2023/10/25 05:34:50;;;;;;;0.10;0.10;;;8.40;99.90;;;;;;5002461;28;20129;-73
2023/10/25 05:37:16;;;;;;;0.20;0.20;;;8.40;99.90;;;;;;5005460;28;20067;-73
2023/10/25 05:39:43;;;;;;;0.17;0.17;;;8.40;99.90;;;;;;5007886;28;20473;-73
2023/10/25 05:42:12;;;;;;;0.20;0.20;;;8.40;99.90;;;;;;5028007;28;20057;-73
2023/10/25 05:44:38;;;;;;;0.10;0.10;;;8.40;99.90;;;;;;5008167;28;20049;-73
2023/10/25 05:47:03;;;;;;;0.20;0.20;;;8.40;99.90;;;;;;5008367;28;20301;-73
2023/10/25 05:49:29;;;;;;;0.20;0.20;;;8.40;99.90;;;;;;5007608;28;20041;-73
2023/10/25 05:51:55;;;;;;;0.10;0.10;;;8.30;99.90;;;;;;5008973;28;20057;-73
2023/10/25 05:54:21;;;;;;;0.10;0.10;;;8.40;99.90;;;;;;5011738;28;20396;-73
2023/10/25 05:56:47;;;;;;;0.17;0.17;;;8.30;99.90;;;;;;4993752;28;20366;-73
2023/10/25 05:59:13;;;;;;;0.10;0.10;;;8.40;99.90;;;;;;5005245;28;20045;-73
2023/10/25 06:01:50;;;;;;;0.10;0.10;;;8.30;99.90;;;;;;5003482;28;20382;-73
2023/10/25 06:04:18;;;;;;;0.10;0.10;;;8.30;99.90;;;;;;5005254;28;20050;-73
2023/10/25 06:06:45;;;;;;;0.20;0.20;;;8.30;99.90;;;;;;5006467;28;20061;-73
2023/10/25 06:09:12;;;;;;;0.15;0.15;;;8.30;99.90;;;;;;5005743;28;20548;-73
2023/10/25 06:11:39;;;;;;;0.10;0.10;;;8.30;99.90;;;;;;5006053;28;20536;-73
2023/10/25 06:14:08;;;;;;;0.15;0.15;;;8.30;99.90;;;;;;5023870;28;20056;-74
2023/10/25 06:16:34;;;;;;;0.20;0.20;;;8.20;99.90;;;;;;5028299;28;20042;-73
2023/10/25 06:19:00;;;;;;;0.20;0.20;;;8.20;99.90;;;;;;5029575;28;20033;-73
2023/10/25 06:21:26;;;;;;;0.10;0.10;;;8.20;99.90;;;;;;5027778;28;20049;-73
2023/10/25 06:23:52;;;;;;;0.17;0.17;;;8.20;99.90;;;;;;5011841;28;20684;-74
2023/10/25 06:26:18;;;;;;;0.10;0.10;;;8.10;99.90;;;;;;5028393;28;20368;-73
2023/10/25 06:28:44;;;;;;;0.10;0.10;;;8.10;99.90;;;;;;5024981;28;20045;-73
2023/10/25 06:31:11;;;;;;;0.10;0.10;;;8.20;99.90;;;;;;5007449;28;20073;-73
2023/10/25 06:33:37;;;;;;;0.20;0.20;;;8.10;99.90;;;;;;5006562;28;20049;-74
2023/10/25 06:36:03;;;;;;;0.20;0.20;;;8.20;99.90;;;;;;5026821;28;20090;-73
2023/10/25 06:38:29;;;;;;;0.10;0.10;;;8.10;99.90;;;;;;5003686;28;20053;-73
2023/10/25 06:40:56;;;;;;;0.10;0.10;;;8.00;99.90;;;;;;5010189;28;20548;-73
2023/10/25 06:43:22;;;;;;;0.10;0.10;;;8.00;99.90;;;;;;5003267;28;20095;-73
2023/10/25 06:45:48;;;;;;;0.10;0.10;;;8.00;99.90;;;;;;5005870;28;20441;-73
2023/10/25 06:48:14;;;;;;;0.20;0.20;;;8.00;99.90;;;;;;5009817;28;20491;-73
2023/10/25 06:50:42;;;;;;;0.10;0.10;;;8.00;99.90;;;;;;5010687;28;20132;-73
2023/10/25 06:53:08;;;;;;;0.10;0.10;;;8.00;99.90;;;;;;4995429;28;20128;-72
2023/10/25 06:55:34;;;;;;;0.10;0.10;;;7.90;99.90;;;;;;5009768;28;20107;-73
2023/10/25 06:58:00;;;;;;;0.10;0.10;;;7.90;99.90;;;;;;5007310;28;20409;-73
2023/10/25 07:00:26;;;;;;;0.10;0.10;;;8.00;99.90;;;;;;4999561;28;20049;-73
2023/10/25 07:02:56;;;;;;;0.10;0.10;;;7.90;99.90;;;;;;5008592;28;20057;-72
2023/10/25 07:05:23;;;;;;;0.20;0.20;;;7.90;99.90;;;;;;5025647;28;20052;-73
2023/10/25 07:07:50;;;;;;;0.10;0.10;;;7.90;99.90;;;;;;5004810;28;20061;-73
2023/10/25 07:10:16;;;;;;;0.10;0.10;;;8.00;99.90;;;;;;5006019;28;20512;-72
2023/10/25 07:12:42;;;;;;;0.10;0.10;;;8.00;99.90;;;;;;5008881;28;20056;-72
2023/10/25 07:15:08;;;;;;;0.10;0.10;;;8.10;99.90;;;;;;5003352;28;20041;-73
2023/10/25 07:17:35;;;;;;;0.20;0.20;;;8.00;99.90;;;;;;5024518;28;20079;-73
2023/10/25 07:20:00;;;;;;;0.20;0.20;;;8.10;99.90;;;;;;5008629;28;20093;-73
2023/10/25 07:22:27;;;;;;;0.20;0.20;;;8.10;99.90;;;;;;5007192;28;20077;-73
2023/10/25 07:24:54;;;;;;;0.15;0.15;;;8.10;99.90;;;;;;5009575;28;20042;-73
2023/10/25 07:27:19;;;;;;;0.10;0.10;;;8.10;99.90;;;;;;5010578;28;20061;-73
2023/10/25 07:29:45;;;;;;;0.10;0.10;;;8.10;99.90;;;;;;5026329;28;20046;-72
2023/10/25 07:32:11;;;;;;;0.17;0.17;;;8.20;99.90;;;;;;5005964;28;20048;-72
2023/10/25 07:34:37;;;;;;;0.20;0.20;;;8.20;99.90;;;;;;5003967;28;20050;-73
2023/10/25 07:37:04;;;;;;;0.10;0.10;;;8.10;99.90;;;;;;4991478;28;20096;-74
2023/10/25 07:39:30;;;;;;;0.10;0.10;;;8.10;99.90;;;;;;5015444;28;20536;-73
2023/10/25 07:41:55;;;;;;;0.13;0.13;;;8.20;99.90;;;;;;5008303;28;20226;-72
2023/10/25 07:44:21;;;;;;;0.10;0.10;;;8.20;99.90;;;;;;5003842;28;20124;-72
2023/10/25 07:46:47;;;;;;;0.20;0.20;;;8.20;99.90;;;;;;4990308;28;20045;-72
2023/10/25 07:49:12;;;;;;;0.15;0.15;;;8.20;99.90;;;;;;4999247;28;20049;-72
2023/10/25 07:51:38;;;;;;;0.20;0.20;;;8.20;99.90;;;;;;5006985;28;20341;-73
2023/10/25 07:54:04;;;;;;;0.20;0.20;;;8.20;99.90;;;;;;5027097;28;20060;-72
2023/10/25 07:56:29;;;;;;;0.10;0.10;;;8.20;99.90;;;;;;5008545;28;20099;-73
2023/10/25 07:58:55;;;;;;;0.10;0.10;;;8.30;99.90;;;;;;5005764;28;20067;-72
2023/10/25 08:01:21;;;;;;;0.20;0.20;;;8.30;99.90;;;;;;5022451;28;20047;-72
2023/10/25 08:03:46;;;;;;;0.10;0.10;;;8.30;99.90;;;;;;5008018;28;20045;-72
2023/10/25 08:06:12;;;;;;;0.15;0.15;;;8.30;99.90;;;;;;4996436;28;20094;-72
2023/10/25 08:08:39;;;;;;;0.10;0.10;;;8.30;99.90;;;;;;5008959;28;20057;-72
2023/10/25 08:11:07;;;;;;;0.20;0.20;;;8.40;99.90;;;;;;5011317;28;20050;-72
2023/10/25 08:13:34;;;;;;;0.20;0.20;;;8.40;99.90;;;;;;5008369;28;20426;-72
2023/10/25 08:16:01;;;;;;;0.10;0.10;;;8.40;99.90;;;;;;5007017;28;20050;-73
2023/10/25 08:18:28;;;;;;;0.10;0.10;;;8.40;99.90;;;;;;5001507;28;20049;-73
2023/10/25 08:20:54;;;;;;;0.15;0.15;;;8.40;99.90;;;;;;5010897;28;20396;-72
2023/10/25 08:23:20;;;;;;;0.10;0.10;;;8.50;99.90;;;;;;5005129;28;20053;-72
2023/10/25 08:25:45;;;;;;;0.10;0.10;;;8.60;99.90;;;;;;5005022;28;20029;-73
2023/10/25 08:28:11;;;;;;;0.10;0.10;;;8.70;99.90;;;;;;5010448;28;20041;-73
2023/10/25 08:30:37;;;;;;;0.10;0.10;;;8.60;99.90;;;;;;5032081;28;20393;-73
2023/10/25 08:33:03;;;;;;;0.10;0.10;;;8.70;99.90;;;;;;5013480;28;20073;-73
2023/10/25 08:35:28;;;;;;;0.10;0.10;;;8.80;99.90;;;;;;4997064;28;20688;-73
2023/10/25 08:37:54;;;;;;;0.10;0.10;;;8.80;99.90;;;;;;4995367;28;20073;-73
2023/10/25 08:40:20;;;;;;;0.10;0.10;;;8.90;99.90;;;;;;5012121;28;20123;-73
2023/10/25 08:42:46;;;;;;;0.10;0.10;;;8.90;99.90;;;;;;5005921;28;20907;-73
2023/10/25 08:45:15;;;;;;;0.10;0.10;;;9.00;99.90;;;;;;5012081;28;20448;-72
2023/10/25 08:47:42;;;;;;;0.20;0.20;;;9.00;99.90;;;;;;5009814;28;20045;-73
2023/10/25 08:50:08;;;;;;;0.10;0.10;;;9.10;99.90;;;;;;5012713;28;20523;-73
2023/10/25 08:52:37;;;;;;;0.20;0.20;;;9.10;99.90;;;;;;5010557;28;20499;-72
2023/10/25 08:55:06;;;;;;;0.20;0.20;;;9.20;99.90;;;;;;5030268;28;20183;-73
2023/10/25 08:57:32;;;;;;;0.10;0.10;;;9.30;99.90;;;;;;5008605;28;20134;-72
2023/10/25 08:59:58;;;;;;;0.10;0.10;;;9.30;99.90;;;;;;5014578;28;20128;-72
2023/10/25 09:02:24;;;;;;;0.10;0.10;;;9.40;99.90;;;;;;5008486;28;20054;-72
2023/10/25 09:05:02;;;;;;;0.20;0.20;;;9.50;99.90;;;;;;5016122;28;20034;-72
2023/10/25 09:07:32;;;;;;;0.20;0.20;;;9.50;99.90;;;;;;5018168;28;20107;-72
2023/10/25 09:09:58;;;;;;;0.10;0.10;;;9.50;99.90;;;;;;5011743;28;20116;-72
2023/10/25 09:12:25;;;;;;;0.20;0.20;;;9.60;99.90;;;;;;5027392;28;20084;-72
2023/10/25 09:14:51;;;;;;;0.10;0.10;;;9.70;99.90;;;;;;5021987;28;20076;-72
2023/10/25 09:17:17;;;;;;;0.10;0.10;;;9.60;99.90;;;;;;5005249;28;20064;-72
2023/10/25 09:19:48;;;;;;;0.10;0.10;;;9.70;99.90;;;;;;5007892;28;20045;-72
2023/10/25 09:22:28;;;;;;;0.10;0.10;;;9.70;99.90;;;;;;5004989;28;20120;-72
2023/10/25 09:24:56;;;;;;;0.38;0.38;;;9.80;99.90;;;;;;5008832;28;20056;-72
2023/10/25 09:27:23;;;;;;;0.10;0.10;;;9.80;99.90;;;;;;4998024;28;20054;-72
2023/10/25 09:29:50;;;;;;;0.20;0.20;;;9.90;99.90;;;;;;5004072;28;20115;-72
2023/10/25 09:32:18;;;;;;;0.15;0.15;;;9.90;99.90;;;;;;4995590;28;20042;-72
2023/10/25 09:34:45;;;;;;;0.20;0.20;;;10.00;99.90;;;;;;5005831;28;20192;-71
2023/10/25 09:37:11;;;;;;;0.10;0.10;;;10.00;99.90;;;;;;5012496;28;20046;-71
2023/10/25 09:39:37;;;;;;;0.15;0.15;;;10.10;99.90;;;;;;4999818;28;20034;-72
2023/10/25 09:42:13;;;;;;;0.10;0.10;;;10.10;99.90;;;;;;4994136;28;20049;-73
2023/10/25 09:44:47;;;;;;;0.25;0.25;;;10.20;99.90;;;;;;5008603;28;20381;-72
2023/10/25 09:47:16;;;;;;;0.22;0.22;;;10.20;99.90;;;;;;5010001;28;20071;-72
2023/10/25 09:49:43;;;;;;;0.10;0.10;;;10.20;99.90;;;;;;5009764;28;20077;-72
2023/10/25 09:52:20;;;;;;;0.20;0.20;;;10.30;99.90;;;;;;5009788;28;20052;-72
2023/10/25 09:55:01;;;;;;;0.15;0.15;;;10.30;99.90;;;;;;5010528;28;20393;-72
2023/10/25 09:57:29;;;;;;;0.10;0.10;;;10.30;99.90;;;;;;5004922;28;20095;-72
2023/10/25 09:59:56;;;;;;;0.10;0.10;;;10.40;99.90;;;;;;5001874;28;20049;-72
2023/10/25 10:02:36;;;;;;;0.10;0.10;;;10.40;99.90;;;;;;5008401;28;20045;-72
2023/10/25 10:05:10;;;;;;;0.10;0.10;;;10.50;99.90;;;;;;5005719;28;20057;-72
2023/10/25 10:07:45;;;;;;;0.20;0.20;;;10.60;99.90;;;;;;5005050;28;20046;-71
2023/10/25 10:10:39;;;;;;;0.10;0.10;;;10.60;99.90;;;;;;4992894;28;20050;-72
2023/10/25 10:13:19;;;;;;;0.10;0.10;;;10.50;99.90;;;;;;5003316;28;20095;-72
2023/10/25 10:16:04;;;;;;;0.10;0.10;;;10.70;99.90;;;;;;5007646;28;20049;-75
2023/10/25 10:18:42;;;;;;;0.10;0.10;;;10.70;99.90;;;;;;5009441;28;20041;-72
2023/10/25 10:21:10;;;;;;;0.10;0.10;;;10.80;99.90;;;;;;4991622;28;20140;-74
2023/10/25 10:23:41;;;;;;;0.10;0.10;;;10.90;99.90;;;;;;4992299;28;20088;-74
2023/10/25 10:26:08;;;;;;;0.10;0.10;;;10.90;99.90;;;;;;4996144;28;20053;-72
2023/10/25 10:28:46;;;;;;;0.45;0.40;;;11.00;99.90;;;;;;5003497;28;20052;-72
2023/10/25 10:31:13;;;;;;;0.10;0.10;;;11.10;99.90;;;;;;5005242;28;20473;-73
2023/10/25 10:33:48;;;;;;;0.13;0.13;;;11.20;99.90;;;;;;4991508;28;20058;-73
2023/10/25 10:36:27;;;;;;;0.15;0.15;;;11.30;99.90;;;;;;4992255;28;20049;-73
2023/10/25 10:39:16;;;;;;;0.10;0.10;;;11.40;99.90;;;;;;5004472;28;20056;-73
2023/10/25 10:41:43;;;;;;;0.20;0.20;;;11.50;99.90;;;;;;5010916;28;20080;-73
2023/10/25 10:44:11;;;;;;;0.17;0.17;;;11.60;99.90;;;;;;5011339;28;20493;-72
2023/10/25 10:46:51;;;;;;;0.10;0.10;;;11.60;99.90;;;;;;5029094;28;20050;-72
2023/10/25 10:49:20;;;;;;;0.10;0.10;;;11.70;99.90;;;;;;5007302;28;20050;-72
2023/10/25 10:51:48;;;;;;;0.10;0.10;;;11.70;99.90;;;;;;4992024;28;20038;-72
2023/10/25 10:54:13;;;;;;;0.10;0.10;;;11.70;99.90;;;;;;5009469;28;20053;-73
2023/10/25 10:56:39;;;;;;;0.10;0.10;;;11.80;99.90;;;;;;4991556;28;20045;-72
2023/10/25 10:59:06;;;;;;;0.10;0.10;;;11.90;99.90;;;;;;5022849;28;20077;-73
2023/10/25 11:01:32;;;;;;;0.10;0.10;;;11.90;99.90;;;;;;5010975;28;20077;-73
2023/10/25 11:03:58;;;;;;;0.10;0.10;;;11.90;99.90;;;;;;5011725;28;20116;-73
2023/10/25 11:06:25;;;;;;;0.20;0.20;;;12.00;99.90;;;;;;5011987;28;20053;-72
2023/10/25 11:08:52;;;;;;;0.20;0.20;;;12.00;99.90;;;;;;5002576;28;20505;-73
2023/10/25 11:11:21;;;;;;;0.10;0.10;;;12.10;99.90;;;;;;5008437;28;20224;-73
2023/10/25 11:13:50;;;;;;;0.20;0.20;;;12.10;99.90;;;;;;4991600;28;21048;-73
2023/10/25 11:16:16;;;;;;;0.22;0.20;;;12.20;99.90;;;;;;4990749;28;20133;-73
2023/10/25 11:18:42;;;;;;;0.20;0.20;;;12.30;99.90;;;;;;4999598;28;20485;-73
2023/10/25 11:21:08;;;;;;;0.15;0.15;;;12.30;99.90;;;;;;5012035;28;20056;-72
2023/10/25 11:23:34;;;;;;;0.10;0.10;;;12.40;99.90;;;;;;4999076;28;20077;-73
2023/10/25 11:26:00;;;;;;;0.10;0.10;;;12.40;99.90;;;;;;5010115;28;20045;-72
2023/10/25 11:28:26;;;;;;;0.13;0.13;;;12.60;99.90;;;;;;5013123;28;20462;-72
2023/10/25 11:30:52;;;;;;;0.13;0.13;;;12.60;99.90;;;;;;5010492;28;20049;-73
2023/10/25 11:33:18;;;;;;;0.20;0.20;;;12.70;99.90;;;;;;5011149;28;20057;-72
2023/10/25 11:35:44;;;;;;;0.10;0.10;;;12.70;99.90;;;;;;5011040;28;20045;-74
2023/10/25 11:38:11;;;;;;;0.17;0.17;;;12.70;99.90;;;;;;5009890;28;20048;-72
2023/10/25 11:40:46;;;;;;;0.10;0.10;;;12.70;99.90;;;;;;5010496;28;20046;-72
2023/10/25 11:43:13;;;;;;;0.10;0.10;;;12.70;99.90;;;;;;5027975;28;20073;-72
2023/10/25 11:45:40;;;;;;;0.10;0.10;;;12.70;99.90;;;;;;5009803;28;20046;-74
2023/10/25 11:48:07;;;;;;;0.10;0.10;;;12.70;99.90;;;;;;5010972;28;20051;-72
2023/10/25 11:50:32;;;;;;;0.20;0.20;;;12.70;99.90;;;;;;5010903;28;20053;-72
2023/10/25 11:52:58;;;;;;;0.10;0.10;;;12.70;99.90;;;;;;5010460;28;20056;-72
2023/10/25 11:55:25;;;;;;;0.10;0.10;;;12.70;99.90;;;;;;5027723;28;20129;-72
2023/10/25 11:57:51;;;;;;;0.10;0.10;;;12.70;99.90;;;;;;5024345;28;20045;-72
2023/10/25 12:00:17;;;;;;;0.10;0.10;;;12.70;99.90;;;;;;5018980;28;20037;-72
2023/10/25 12:02:43;;;;;;;0.10;0.10;;;12.80;99.90;;;;;;5005046;28;20037;-72
2023/10/25 12:05:10;;;;;;;0.17;0.17;;;12.80;99.90;;;;;;5019785;28;20033;-71
2023/10/25 12:07:36;;;;;;;0.10;0.10;;;12.80;99.90;;;;;;5008883;28;20047;-72
2023/10/25 12:10:04;;;;;;;0.20;0.17;;;12.80;99.90;;;;;;5005327;28;20385;-71
2023/10/25 12:12:30;;;;;;;0.10;0.10;;;12.80;99.90;;;;;;5023132;28;20128;-72
2023/10/25 12:14:56;;;;;;;0.10;0.10;;;12.80;99.90;;;;;;5012198;28;20045;-71
2023/10/25 12:17:23;;;;;;;0.10;0.10;;;12.80;99.90;;;;;;5006692;28;20050;-71
2023/10/25 12:19:50;;;;;;;0.10;0.10;;;12.80;99.90;;;;;;5003551;28;20041;-71
2023/10/25 12:22:17;;;;;;;0.10;0.10;;;12.80;99.90;;;;;;5005932;28;20038;-72
2023/10/25 12:24:44;;;;;;;0.10;0.10;;;12.80;99.90;;;;;;5000505;28;20370;-72
2023/10/25 12:27:09;;;;;;;0.20;0.20;;;12.80;99.90;;;;;;5021365;28;20096;-72
2023/10/25 12:29:35;;;;;;;0.22;0.20;;;12.80;99.90;;;;;;5003477;28;20507;-71
2023/10/25 12:32:05;;;;;;;0.10;0.10;;;12.70;99.90;;;;;;5006467;28;20128;-71
2023/10/25 12:34:32;;;;;;;0.10;0.10;;;12.70;99.90;;;;;;5003121;28;20446;-72
2023/10/25 12:36:58;;;;;;;0.17;0.17;;;12.70;99.90;;;;;;5004714;28;20061;-72
2023/10/25 12:39:23;;;;;;;0.10;0.10;;;12.70;99.90;;;;;;5003477;28;20038;-71
2023/10/25 12:41:50;;;;;;;0.10;0.10;;;12.70;99.90;;;;;;5006722;28;20068;-71
2023/10/25 12:44:16;;;;;;;0.10;0.10;;;12.70;99.90;;;;;;5006873;28;20121;-72
2023/10/25 12:46:43;;;;;;;0.10;0.10;;;12.70;99.90;;;;;;5008333;28;20037;-71
2023/10/25 12:49:11;;;;;;;0.10;0.10;;;12.70;99.90;;;;;;5006280;28;20050;-72
2023/10/25 12:51:39;;;;;;;0.20;0.20;;;12.70;99.90;;;;;;5007817;28;20441;-72
2023/10/25 12:54:07;;;;;;;0.10;0.10;;;12.60;99.90;;;;;;5008512;28;20129;-72